createdAt,value
2023-02-16T00:03:27.261Z,4.49
2023-02-16T00:08:28.703Z,4.46
2023-02-16T00:13:47.436Z,4.49
2023-02-16T00:18:49.097Z,4.61
2023-02-16T00:23:51.112Z,4.74
2023-02-16T00:28:55.023Z,4.80
2023-02-16T00:33:56.465Z,4.81
2023-02-16T00:38:57.892Z,4.82
2023-02-16T00:43:59.426Z,4.79
2023-02-16T00:49:00.858Z,4.75
2023-02-16T00:54:02.347Z,4.70
2023-02-16T00:59:07.409Z,4.69
2023-02-16T01:04:20.120Z,4.67
2023-02-16T01:09:40.091Z,4.65
2023-02-16T01:14:41.578Z,4.65
2023-02-16T01:19:43.108Z,4.65
2023-02-16T01:24:44.604Z,4.62
2023-02-16T01:29:46.105Z,4.61
2023-02-16T01:34:47.587Z,4.66
2023-02-16T01:39:49.436Z,4.72
2023-02-16T01:44:59.702Z,4.69
2023-02-16T01:50:14.911Z,4.62
2023-02-16T01:55:28.417Z,4.53
2023-02-16T02:00:52.064Z,4.46
2023-02-16T02:05:53.500Z,4.48
2023-02-16T02:11:20.250Z,4.51
2023-02-16T02:16:28.913Z,4.54
2023-02-16T02:22:28.195Z,4.62
2023-02-16T02:27:37.614Z,4.70
2023-02-16T02:32:45.699Z,4.73
2023-02-16T02:38:06.316Z,4.74
2023-02-16T02:43:10.874Z,4.77
2023-02-16T02:48:13.882Z,4.81
2023-02-16T02:53:16.306Z,4.81
2023-02-16T02:58:41.575Z,4.86
2023-02-16T03:03:47.788Z,4.85
2023-02-16T03:08:55.792Z,4.89
2023-02-16T03:14:05.773Z,4.87
2023-02-16T03:19:28.216Z,4.77
2023-02-16T03:24:51.777Z,4.73
2023-02-16T03:29:55.810Z,4.78
2023-02-16T03:34:57.452Z,4.83
2023-02-16T03:40:17.831Z,4.88
2023-02-16T03:45:23.112Z,4.87
2023-02-16T03:50:26.982Z,4.93
2023-02-16T03:55:28.399Z,4.98
2023-02-16T04:00:29.922Z,5.02
2023-02-16T04:05:32.490Z,5.04
2023-02-16T04:10:34.546Z,5.03
2023-02-16T04:15:36.010Z,4.98
2023-02-16T04:20:37.794Z,4.95
2023-02-16T04:25:39.207Z,4.89
2023-02-16T04:30:40.705Z,4.84
2023-02-16T04:35:42.175Z,4.75
2023-02-16T04:40:43.610Z,4.70
2023-02-16T04:45:45.025Z,4.67
2023-02-16T04:50:46.495Z,4.62
2023-02-16T04:55:49.512Z,4.59
2023-02-16T05:00:50.947Z,4.57
2023-02-16T05:05:52.355Z,4.56
2023-02-16T05:11:12.241Z,4.51
2023-02-16T05:16:13.669Z,4.42
2023-02-16T05:21:33.205Z,4.38
2023-02-16T05:26:36.776Z,4.42
2023-02-16T05:31:38.380Z,4.48
2023-02-16T05:36:39.932Z,4.53
2023-02-16T05:41:41.350Z,4.62
2023-02-16T05:46:43.182Z,4.68
2023-02-16T05:51:44.624Z,4.71
2023-02-16T05:56:50.743Z,4.69
2023-02-16T06:01:52.735Z,4.66
2023-02-16T06:06:54.594Z,4.61
2023-02-16T06:11:55.990Z,4.59
2023-02-16T06:16:58.663Z,4.61
2023-02-16T06:22:00.104Z,4.57
2023-02-16T06:27:01.527Z,4.54
2023-02-16T06:32:03.458Z,4.52
2023-02-16T06:37:04.993Z,4.51
2023-02-16T06:42:06.394Z,4.50
2023-02-16T06:47:07.790Z,4.50
2023-02-16T06:52:09.396Z,4.50
2023-02-16T06:57:11.006Z,4.50
2023-02-16T07:02:12.603Z,4.48
2023-02-16T07:07:14.160Z,4.46
2023-02-16T07:12:15.611Z,4.45
2023-02-16T07:17:17.378Z,4.45
2023-02-16T07:22:18.946Z,4.50
2023-02-16T07:27:20.343Z,4.54
2023-02-16T07:32:21.933Z,4.55
2023-02-16T07:37:23.506Z,4.64
2023-02-16T07:42:24.977Z,4.77
2023-02-16T07:47:26.890Z,4.92
2023-02-16T07:52:30.985Z,5.07
2023-02-16T07:57:32.517Z,5.22
2023-02-16T08:02:42.544Z,5.39
2023-02-16T08:07:46.597Z,5.53
2023-02-16T08:12:49.701Z,5.68
2023-02-16T08:17:51.254Z,5.86
2023-02-16T08:22:54.440Z,6.06
2023-02-16T08:27:55.878Z,6.28
2023-02-16T08:33:00.938Z,6.48
2023-02-16T08:38:02.402Z,6.72
2023-02-16T08:43:03.904Z,6.98
2023-02-16T08:48:05.452Z,7.25
2023-02-16T08:53:06.966Z,7.50
2023-02-16T08:58:08.384Z,7.72
2023-02-16T09:03:09.778Z,7.96
2023-02-16T09:08:11.359Z,8.18
2023-02-16T09:13:16.262Z,8.38
2023-02-16T09:18:18.131Z,8.51
2023-02-16T09:23:20.452Z,8.65
2023-02-16T09:28:21.878Z,8.81
2023-02-16T09:33:23.331Z,8.93
2023-02-16T09:38:25.437Z,9.00
2023-02-16T09:43:47.730Z,8.98
2023-02-16T09:48:50.906Z,8.88
2023-02-16T09:54:02.035Z,8.86
2023-02-16T09:59:18.800Z,8.85
2023-02-16T10:04:51.374Z,8.90
2023-02-16T10:09:55.152Z,8.95
2023-02-16T10:15:02.773Z,9.04
2023-02-16T10:20:18.467Z,9.19
2023-02-16T10:25:37.215Z,9.36
2023-02-16T10:30:42.937Z,9.53
2023-02-16T10:35:48.060Z,9.65
2023-02-16T10:40:49.404Z,9.76
2023-02-16T10:45:58.997Z,9.83
2023-02-16T10:51:10.854Z,9.87
2023-02-16T10:56:31.799Z,9.91
2023-02-16T11:01:38.043Z,9.94
2023-02-16T11:06:39.508Z,10.00
2023-02-16T11:11:42.810Z,10.05
2023-02-16T11:16:44.736Z,10.11
2023-02-16T11:21:52.165Z,10.14
2023-02-16T11:27:21.849Z,10.20
2023-02-16T11:32:24.135Z,10.24
2023-02-16T11:37:29.546Z,10.32
2023-02-16T11:42:40.224Z,10.39
2023-02-16T11:47:43.017Z,10.45
2023-02-16T11:52:46.965Z,10.55
2023-02-16T11:57:49.002Z,10.59
2023-02-16T12:03:23.060Z,10.71
2023-02-16T12:08:36.898Z,10.79
2023-02-16T12:13:59.378Z,10.92
2023-02-16T12:19:03.786Z,11.04
2023-02-16T12:24:14.295Z,11.08
2023-02-16T12:29:34.643Z,11.13
2023-02-16T12:35:09.399Z,11.16
2023-02-16T12:40:31.991Z,11.20
2023-02-16T12:45:38.677Z,11.23
2023-02-16T12:50:42.034Z,11.25
2023-02-16T12:55:51.027Z,11.26
2023-02-16T13:00:58.507Z,11.29
2023-02-16T13:06:25.305Z,11.37
2023-02-16T13:11:56.842Z,11.45
2023-02-16T13:17:02.918Z,11.50
2023-02-16T13:22:13.651Z,11.57
2023-02-16T13:27:24.716Z,11.95
2023-02-16T13:32:32.227Z,12.95
2023-02-16T13:37:45.884Z,13.64
2023-02-16T13:42:47.305Z,14.12
2023-02-16T13:47:51.984Z,13.85
2023-02-16T13:52:56.686Z,13.12
2023-02-16T13:58:29.872Z,12.50
2023-02-16T14:03:38.060Z,12.12
2023-02-16T14:08:39.723Z,11.83
2023-02-16T14:13:41.261Z,11.68
2023-02-16T14:18:55.288Z,11.51
2023-02-16T14:23:59.052Z,11.36
2023-02-16T14:29:17.501Z,11.31
2023-02-16T14:34:31.313Z,11.28
2023-02-16T14:39:34.967Z,11.24
2023-02-16T14:44:53.605Z,11.18
2023-02-16T14:50:15.837Z,11.11
2023-02-16T14:55:43.390Z,11.04
2023-02-16T15:01:08.544Z,11.00
2023-02-16T15:06:18.860Z,10.87
2023-02-16T15:11:27.791Z,10.73
2023-02-16T15:16:31.768Z,10.60
2023-02-16T15:21:33.349Z,10.45
2023-02-16T15:26:35.869Z,10.26
2023-02-16T15:31:38.261Z,10.05
2023-02-16T15:36:42.544Z,9.87
2023-02-16T15:41:48.286Z,9.69
2023-02-16T15:46:49.737Z,9.53
2023-02-16T15:51:51.777Z,9.35
2023-02-16T15:56:59.705Z,9.22
2023-02-16T16:02:10.581Z,9.11
2023-02-16T16:07:16.121Z,8.96
2023-02-16T16:12:19.426Z,8.81
2023-02-16T16:17:27.906Z,8.68
2023-02-16T16:22:59.705Z,8.59
2023-02-16T16:28:06.350Z,8.44
2023-02-16T16:33:13.882Z,8.30
2023-02-16T16:38:25.230Z,8.17
2023-02-16T16:43:34.876Z,8.12
2023-02-16T16:48:37.148Z,8.09
2023-02-16T16:54:04.142Z,8.13
2023-02-16T16:59:06.574Z,8.15
2023-02-16T17:04:08.151Z,8.11
2023-02-16T17:09:09.811Z,8.08
2023-02-16T17:14:17.238Z,8.11
2023-02-16T17:19:21.496Z,8.19
2023-02-16T17:24:23.154Z,8.28
2023-02-16T17:29:24.711Z,8.38
2023-02-16T17:34:29.249Z,8.43
2023-02-16T17:39:30.990Z,8.46
2023-02-16T17:44:32.395Z,8.43
2023-02-16T17:49:33.860Z,8.38
2023-02-16T17:54:35.430Z,8.30
2023-02-16T17:59:36.980Z,8.25
2023-02-16T18:04:41.050Z,8.20
2023-02-16T18:09:42.705Z,8.21
2023-02-16T18:14:44.157Z,8.26
2023-02-16T18:19:45.611Z,8.30
2023-02-16T18:24:47.053Z,8.32
2023-02-16T18:29:48.613Z,8.34
2023-02-16T18:34:50.156Z,8.34
2023-02-16T18:39:51.606Z,8.33
2023-02-16T18:44:53.073Z,8.31
2023-02-16T18:49:56.094Z,8.31
2023-02-16T18:54:57.533Z,8.36
2023-02-16T18:59:59.342Z,8.35
2023-02-16T19:05:01.182Z,8.38
2023-02-16T19:10:04.840Z,8.41
2023-02-16T19:15:09.502Z,8.45
2023-02-16T19:20:14.416Z,8.48
2023-02-16T19:25:16.185Z,8.52
2023-02-16T19:30:20.563Z,8.56
2023-02-16T19:35:22.641Z,8.58
2023-02-16T19:40:24.073Z,8.60
2023-02-16T19:45:25.554Z,8.60
2023-02-16T19:50:27.010Z,8.59
2023-02-16T19:55:28.444Z,8.60
2023-02-16T20:00:30.018Z,8.60
2023-02-16T20:05:32.271Z,8.58
2023-02-16T20:10:34.318Z,8.58
2023-02-16T20:15:36.320Z,8.58
2023-02-16T20:20:37.731Z,8.60
2023-02-16T20:25:39.984Z,8.63
2023-02-16T20:30:42.282Z,8.63
2023-02-16T20:35:43.852Z,8.62
2023-02-16T20:40:45.478Z,8.63
2023-02-16T20:45:47.592Z,8.69
2023-02-16T20:51:08.587Z,8.75
2023-02-16T20:56:15.785Z,8.79
2023-02-16T21:01:27.946Z,8.85
2023-02-16T21:06:29.639Z,8.87
2023-02-16T21:11:31.748Z,8.86
2023-02-16T21:16:33.547Z,8.82
2023-02-16T21:21:35.062Z,8.74
2023-02-16T21:26:36.562Z,8.74
2023-02-16T21:31:38.307Z,8.78
2023-02-16T21:36:39.912Z,8.82
2023-02-16T21:41:41.424Z,8.88
2023-02-16T21:46:45.192Z,8.92
2023-02-16T21:51:47.989Z,8.96
2023-02-16T21:56:50.216Z,8.96
2023-02-16T22:01:51.860Z,8.98
2023-02-16T22:06:54.600Z,9.02
2023-02-16T22:11:56.201Z,9.06
2023-02-16T22:16:57.607Z,9.07
2023-02-16T22:21:59.112Z,9.09
2023-02-16T22:27:00.566Z,9.09
2023-02-16T22:32:02.056Z,9.12
2023-02-16T22:37:03.522Z,9.14
2023-02-16T22:42:04.965Z,9.16
2023-02-16T22:47:06.406Z,9.16
2023-02-16T22:52:08.523Z,9.18
2023-02-16T22:57:10.133Z,9.18
2023-02-16T23:02:11.606Z,9.16
2023-02-16T23:07:13.120Z,9.11
2023-02-16T23:12:16.264Z,8.97
2023-02-16T23:17:17.734Z,8.84
2023-02-16T23:22:19.133Z,8.78
2023-02-16T23:27:20.528Z,8.80
2023-02-16T23:32:22.369Z,8.85
2023-02-16T23:37:23.777Z,8.88
2023-02-16T23:42:25.491Z,8.88
2023-02-16T23:47:27.010Z,8.85
2023-02-16T23:52:28.410Z,8.88
2023-02-16T23:57:29.861Z,8.89
